createdAt,value
2018-12-07T00:02:24.960Z,8.90
2018-12-07T00:04:51.393Z,12.43
2018-12-07T00:07:18.103Z,14.43
2018-12-07T00:09:44.676Z,12.27
2018-12-07T00:12:11.149Z,13.80
2018-12-07T00:14:38.012Z,8.93
2018-12-07T00:17:04.459Z,11.27
2018-12-07T00:19:31.053Z,10.87
2018-12-07T00:21:57.530Z,14.53
2018-12-07T00:24:24.021Z,19.33
2018-12-07T00:26:50.514Z,15.87
2018-12-07T00:29:17.003Z,18.23
2018-12-07T00:31:43.430Z,9.63
2018-12-07T00:34:09.822Z,12.47
2018-12-07T00:36:36.312Z,16.50
2018-12-07T00:39:05.425Z,20.83
2018-12-07T00:41:31.777Z,11.40
2018-12-07T00:43:58.938Z,13.70
2018-12-07T00:46:25.460Z,17.50
2018-12-07T00:48:51.951Z,16.23
2018-12-07T00:51:18.399Z,21.10
2018-12-07T00:53:44.822Z,15.40
2018-12-07T00:56:11.249Z,13.17
2018-12-07T00:58:37.712Z,18.80
2018-12-07T01:01:04.386Z,20.50
2018-12-07T01:06:12.921Z,21.07
2018-12-07T01:08:39.355Z,13.43
2018-12-07T01:11:05.913Z,20.03
2018-12-07T01:13:32.388Z,11.37
2018-12-07T01:15:58.906Z,20.20
2018-12-07T01:18:25.339Z,11.67
2018-12-07T01:20:51.782Z,13.43
2018-12-07T01:23:18.514Z,14.00
2018-12-07T01:25:44.939Z,8.10
2018-12-07T01:28:11.298Z,7.17
2018-12-07T01:30:37.770Z,10.03
2018-12-07T01:33:04.138Z,10.83
2018-12-07T01:35:30.594Z,6.73
2018-12-07T01:37:57.098Z,9.97
2018-12-07T01:40:23.630Z,6.90
2018-12-07T01:42:50.064Z,6.80
2018-12-07T01:45:16.599Z,7.13
2018-12-07T01:47:45.000Z,8.03
2018-12-07T01:50:11.809Z,8.40
2018-12-07T01:52:38.357Z,7.93
2018-12-07T01:55:04.920Z,6.47
2018-12-07T01:57:31.413Z,8.40
2018-12-07T01:59:57.908Z,7.90
2018-12-07T02:02:24.707Z,9.27
2018-12-07T02:04:51.246Z,9.73
2018-12-07T02:07:28.553Z,6.63
2018-12-07T02:09:55.133Z,5.93
2018-12-07T02:12:21.810Z,11.73
2018-12-07T02:14:48.230Z,7.03
2018-12-07T02:17:14.624Z,7.23
2018-12-07T02:19:41.103Z,8.67
2018-12-07T02:22:07.604Z,4.33
2018-12-07T02:24:34.041Z,3.63
2018-12-07T02:27:00.851Z,3.67
2018-12-07T02:29:27.382Z,2.93
2018-12-07T02:31:53.945Z,5.53
2018-12-07T02:34:20.380Z,4.73
2018-12-07T02:36:46.894Z,4.50
2018-12-07T02:39:13.327Z,3.53
2018-12-07T02:41:39.769Z,4.67
2018-12-07T02:44:06.222Z,4.00
2018-12-07T02:46:32.984Z,5.13
2018-12-07T02:48:59.523Z,5.43
2018-12-07T02:51:25.988Z,3.00
2018-12-07T02:53:52.357Z,6.47
2018-12-07T02:56:18.765Z,2.93
2018-12-07T02:58:45.228Z,4.73
2018-12-07T03:01:11.652Z,2.83
2018-12-07T03:03:38.303Z,2.53
2018-12-07T03:06:04.841Z,3.60
2018-12-07T03:08:31.326Z,3.03
2018-12-07T03:10:57.710Z,2.17
2018-12-07T03:13:24.082Z,2.97
2018-12-07T03:15:50.509Z,2.93
2018-12-07T03:18:31.576Z,2.17
2018-12-07T03:20:58.258Z,3.40
2018-12-07T03:23:25.192Z,2.27
2018-12-07T03:25:51.632Z,2.60
2018-12-07T03:28:18.267Z,2.37
2018-12-07T03:30:44.784Z,1.90
2018-12-07T03:33:11.423Z,3.63
2018-12-07T03:35:37.941Z,1.80
2018-12-07T03:38:04.357Z,2.07
2018-12-07T03:40:30.889Z,2.40
2018-12-07T03:42:57.316Z,1.97
2018-12-07T03:45:23.824Z,1.90
2018-12-07T03:47:50.382Z,2.70
2018-12-07T03:50:16.951Z,1.90
2018-12-07T03:52:44.414Z,2.00
2018-12-07T03:55:12.875Z,3.47
2018-12-07T03:57:40.542Z,2.47
2018-12-07T04:00:07.175Z,1.87
2018-12-07T04:02:33.527Z,1.97
2018-12-07T04:04:59.977Z,1.73
2018-12-07T04:07:26.422Z,2.33
2018-12-07T04:09:52.924Z,2.33
2018-12-07T04:12:19.459Z,5.20
2018-12-07T04:14:45.906Z,2.27
2018-12-07T04:17:12.501Z,1.70
2018-12-07T04:19:39.986Z,1.67
2018-12-07T04:22:07.359Z,1.60
2018-12-07T04:24:33.829Z,1.50
2018-12-07T04:27:00.286Z,2.23
2018-12-07T04:29:27.441Z,1.60
2018-12-07T04:31:54.932Z,2.80
2018-12-07T04:34:21.558Z,3.13
2018-12-07T04:36:47.968Z,2.17
2018-12-07T04:39:14.388Z,1.67
2018-12-07T04:41:40.734Z,2.00
2018-12-07T04:44:07.207Z,4.00
2018-12-07T04:46:33.558Z,2.87
2018-12-07T04:49:00.093Z,2.70
2018-12-07T04:51:26.594Z,2.77
2018-12-07T04:53:52.928Z,3.03
2018-12-07T04:56:19.324Z,2.10
2018-12-07T04:58:45.830Z,2.60
2018-12-07T05:01:12.332Z,2.63
2018-12-07T05:03:38.718Z,2.37
2018-12-07T05:06:05.183Z,3.50
2018-12-07T05:08:31.703Z,3.77
2018-12-07T05:10:58.087Z,2.53
2018-12-07T05:13:24.611Z,3.10
2018-12-07T05:15:51.123Z,4.10
2018-12-07T05:18:18.285Z,2.97
2018-12-07T05:20:44.714Z,4.90
2018-12-07T05:23:11.139Z,5.93
2018-12-07T05:25:38.845Z,3.67
2018-12-07T05:28:05.209Z,4.37
2018-12-07T05:30:31.691Z,3.07
2018-12-07T05:32:58.129Z,3.10
2018-12-07T05:35:24.641Z,3.87
2018-12-07T05:37:51.067Z,3.20
2018-12-07T05:40:17.496Z,4.23
2018-12-07T05:42:44.911Z,3.17
2018-12-07T05:45:11.933Z,3.83
2018-12-07T05:47:38.346Z,3.50
2018-12-07T05:50:05.979Z,4.30
2018-12-07T05:52:47.438Z,4.23
2018-12-07T05:55:13.952Z,4.20
2018-12-07T05:57:42.121Z,6.30
2018-12-07T06:00:08.598Z,6.27
2018-12-07T06:02:35.011Z,3.83
2018-12-07T06:05:02.099Z,4.00
2018-12-07T06:07:28.876Z,3.33
2018-12-07T06:09:55.350Z,3.30
2018-12-07T06:12:21.752Z,3.60
2018-12-07T06:14:48.282Z,3.70
2018-12-07T06:17:14.653Z,5.50
2018-12-07T06:19:41.090Z,3.30
2018-12-07T06:22:08.764Z,7.37
2018-12-07T06:24:35.519Z,3.60
2018-12-07T06:27:02.021Z,3.83
2018-12-07T06:29:28.930Z,4.60
2018-12-07T06:31:55.513Z,5.40
2018-12-07T06:34:22.075Z,4.43
2018-12-07T06:36:48.754Z,5.60
2018-12-07T06:39:15.217Z,3.87
2018-12-07T06:41:41.686Z,7.20
2018-12-07T06:44:08.310Z,4.43
2018-12-07T06:46:34.883Z,4.53
2018-12-07T06:49:06.344Z,5.77
2018-12-07T06:51:32.870Z,6.13
2018-12-07T06:53:59.455Z,5.63
2018-12-07T06:56:25.895Z,6.87
2018-12-07T06:58:52.335Z,5.20
2018-12-07T07:01:18.719Z,4.03
2018-12-07T07:03:45.237Z,3.93
2018-12-07T07:06:12.483Z,6.27
2018-12-07T07:08:39.115Z,5.23
2018-12-07T07:11:05.790Z,3.87
2018-12-07T07:13:32.366Z,5.17
2018-12-07T07:15:58.769Z,7.53
2018-12-07T07:18:25.207Z,8.90
2018-12-07T07:20:51.640Z,4.33
2018-12-07T07:23:18.050Z,6.60
2018-12-07T07:25:45.010Z,10.60
2018-12-07T07:28:11.453Z,6.47
2018-12-07T07:30:37.988Z,3.70
2018-12-07T07:33:04.459Z,9.40
2018-12-07T07:35:30.866Z,5.50
2018-12-07T07:37:57.420Z,4.57
2018-12-07T07:40:23.782Z,7.87
2018-12-07T07:42:50.216Z,5.30
2018-12-07T07:45:16.708Z,5.83
2018-12-07T07:47:43.377Z,4.93
2018-12-07T07:50:10.159Z,4.53
2018-12-07T07:52:37.646Z,5.90
2018-12-07T07:55:04.290Z,6.03
2018-12-07T07:57:30.655Z,7.40
2018-12-07T08:00:12.803Z,8.17
2018-12-07T08:02:39.278Z,6.87
2018-12-07T08:05:05.835Z,6.67
2018-12-07T08:10:05.440Z,6.17
2018-12-07T08:12:33.517Z,6.53
2018-12-07T08:15:00.290Z,6.60
2018-12-07T08:17:26.668Z,12.83
2018-12-07T08:19:53.131Z,6.13
2018-12-07T08:22:19.610Z,7.73
2018-12-07T08:24:46.136Z,6.63
2018-12-07T08:27:12.579Z,7.47
2018-12-07T08:29:38.995Z,10.03
2018-12-07T08:32:05.567Z,6.67
2018-12-07T08:34:32.891Z,7.33
2018-12-07T08:36:59.273Z,5.33
2018-12-07T08:39:26.190Z,5.63
2018-12-07T08:41:52.692Z,4.97
2018-12-07T08:44:19.092Z,7.43
2018-12-07T08:46:45.510Z,6.13
2018-12-07T08:49:11.924Z,6.30
2018-12-07T08:51:38.283Z,9.67
2018-12-07T08:54:04.768Z,11.93
2018-12-07T08:56:31.175Z,8.60
2018-12-07T08:58:57.792Z,7.77
2018-12-07T09:01:24.233Z,12.17
2018-12-07T09:03:50.692Z,8.43
2018-12-07T09:06:17.208Z,7.17
2018-12-07T09:08:43.655Z,9.30
2018-12-07T09:11:10.290Z,6.50
2018-12-07T09:13:36.742Z,16.30
2018-12-07T09:16:04.186Z,8.37
2018-12-07T09:18:30.558Z,43.83
2018-12-07T09:20:56.957Z,7.03
2018-12-07T09:23:23.445Z,8.47
2018-12-07T09:25:49.946Z,5.30
2018-12-07T09:28:16.350Z,9.10
2018-12-07T09:30:42.753Z,8.30
2018-12-07T09:33:09.121Z,8.27
2018-12-07T09:35:37.428Z,8.60
2018-12-07T09:38:04.299Z,11.33
2018-12-07T09:40:30.913Z,13.73
2018-12-07T09:42:57.438Z,9.27
2018-12-07T09:45:23.899Z,11.07
2018-12-07T09:47:50.337Z,12.10
2018-12-07T09:50:16.859Z,9.30
2018-12-07T09:52:43.281Z,11.37
2018-12-07T09:55:09.771Z,11.33
2018-12-07T09:57:36.290Z,11.47
2018-12-07T10:00:04.070Z,10.70
2018-12-07T10:02:31.593Z,17.90
2018-12-07T10:04:58.187Z,10.20
2018-12-07T10:07:24.537Z,11.87
2018-12-07T10:09:51.049Z,12.30
2018-12-07T10:12:17.528Z,11.37
2018-12-07T10:14:43.963Z,13.40
2018-12-07T10:17:10.436Z,10.83
2018-12-07T10:19:36.938Z,14.50
2018-12-07T10:22:03.685Z,11.60
2018-12-07T10:24:30.365Z,13.93
2018-12-07T10:27:00.983Z,13.03
2018-12-07T10:29:27.439Z,14.33
2018-12-07T10:31:53.781Z,15.17
2018-12-07T10:34:20.355Z,12.80
2018-12-07T10:36:46.757Z,16.73
2018-12-07T10:39:13.232Z,12.67
2018-12-07T10:41:39.706Z,18.93
2018-12-07T10:44:06.116Z,14.17
2018-12-07T10:46:32.551Z,15.30
2018-12-07T10:48:58.942Z,11.17
2018-12-07T10:51:25.337Z,12.80
2018-12-07T10:53:51.702Z,11.33
2018-12-07T10:56:18.200Z,15.90
2018-12-07T10:58:44.621Z,12.63
2018-12-07T11:01:17.548Z,16.57
2018-12-07T11:03:50.436Z,13.27
2018-12-07T11:06:22.848Z,13.33
2018-12-07T11:08:55.468Z,12.83
2018-12-07T11:17:33.124Z,15.30
2018-12-07T11:20:05.703Z,12.67
2018-12-07T11:22:38.140Z,11.87
2018-12-07T11:25:11.016Z,11.10
2018-12-07T11:27:43.513Z,9.33
2018-12-07T11:30:15.877Z,10.30
2018-12-07T11:35:46.117Z,11.17
2018-12-07T11:38:12.501Z,8.00
2018-12-07T11:40:39.134Z,9.13
2018-12-07T11:43:06.258Z,10.37
2018-12-07T11:45:32.768Z,9.00
2018-12-07T11:47:59.427Z,10.40
2018-12-07T11:50:26.707Z,10.17
2018-12-07T11:52:53.190Z,9.70
2018-12-07T11:55:19.705Z,8.90
2018-12-07T11:57:46.285Z,12.00
2018-12-07T12:00:13.022Z,7.67
2018-12-07T12:02:39.483Z,10.53
2018-12-07T12:05:05.925Z,10.60
2018-12-07T12:07:32.852Z,11.17
2018-12-07T12:09:59.615Z,10.77
2018-12-07T12:12:26.062Z,9.70
2018-12-07T12:14:52.566Z,10.87
2018-12-07T12:17:19.028Z,10.70
2018-12-07T12:19:45.542Z,9.27
2018-12-07T12:22:11.947Z,10.20
2018-12-07T12:24:38.497Z,9.97
2018-12-07T12:27:05.030Z,6.83
2018-12-07T12:29:33.452Z,7.73
2018-12-07T12:32:00.635Z,9.87
2018-12-07T12:34:28.874Z,11.97
2018-12-07T12:36:55.406Z,9.43
2018-12-07T12:39:21.843Z,7.13
2018-12-07T12:41:48.255Z,6.07
2018-12-07T12:44:15.078Z,5.90
2018-12-07T12:46:41.546Z,5.87
2018-12-07T12:49:08.022Z,8.17
2018-12-07T12:51:34.413Z,7.83
2018-12-07T12:54:00.746Z,6.80
2018-12-07T12:56:27.276Z,7.00
2018-12-07T12:58:53.784Z,5.60
2018-12-07T13:01:20.223Z,5.93
2018-12-07T13:03:46.666Z,5.37
2018-12-07T13:06:13.433Z,7.53
2018-12-07T13:08:39.834Z,11.03
2018-12-07T13:11:06.206Z,5.67
2018-12-07T13:13:32.698Z,5.73
2018-12-07T13:15:59.046Z,6.23
2018-12-07T13:18:25.434Z,7.27
2018-12-07T13:20:51.809Z,7.47
2018-12-07T13:23:18.161Z,6.37
2018-12-07T13:25:44.519Z,6.10
2018-12-07T13:28:10.955Z,8.70
2018-12-07T13:30:37.391Z,9.70
2018-12-07T13:33:04.130Z,9.00
2018-12-07T13:35:30.711Z,10.00
2018-12-07T13:37:57.495Z,9.70
2018-12-07T13:40:23.955Z,9.73
2018-12-07T13:42:50.686Z,11.97
2018-12-07T13:45:17.223Z,11.20
2018-12-07T13:47:43.839Z,9.57
2018-12-07T13:50:16.422Z,15.13
2018-12-07T13:52:43.139Z,12.33
2018-12-07T13:55:09.686Z,14.20
2018-12-07T13:57:38.916Z,8.80
2018-12-07T14:00:07.929Z,9.33
2018-12-07T14:02:35.779Z,11.40
2018-12-07T14:05:03.895Z,11.13
2018-12-07T14:07:30.591Z,9.87
2018-12-07T14:09:59.720Z,9.20
2018-12-07T14:12:26.328Z,10.03
2018-12-07T14:14:52.854Z,12.33
2018-12-07T14:17:19.411Z,9.93
2018-12-07T14:19:46.129Z,10.20
2018-12-07T14:22:12.793Z,13.13
2018-12-07T14:24:42.872Z,15.80
2018-12-07T14:27:09.760Z,13.03
2018-12-07T14:29:36.326Z,12.97
2018-12-07T14:32:03.021Z,12.50
2018-12-07T14:34:29.867Z,9.47
2018-12-07T14:36:56.716Z,12.83
2018-12-07T14:39:23.663Z,10.97
2018-12-07T14:41:50.326Z,9.57
2018-12-07T14:44:18.082Z,10.60
2018-12-07T14:46:45.716Z,13.13
2018-12-07T14:49:12.972Z,9.70
2018-12-07T14:51:40.361Z,12.60
2018-12-07T14:54:08.568Z,10.20
2018-12-07T14:56:35.077Z,10.80
2018-12-07T14:59:05.822Z,11.67
2018-12-07T15:01:32.426Z,12.07
2018-12-07T15:03:58.949Z,11.93
2018-12-07T15:06:25.606Z,11.57
2018-12-07T15:08:52.298Z,13.40
2018-12-07T15:11:19.178Z,12.33
2018-12-07T15:13:45.638Z,13.27
2018-12-07T15:16:12.088Z,11.53
2018-12-07T15:18:39.036Z,8.77
2018-12-07T15:21:05.555Z,11.23
2018-12-07T15:23:33.622Z,9.97
2018-12-07T15:26:01.384Z,12.13
2018-12-07T15:28:27.940Z,10.80
2018-12-07T15:30:54.444Z,10.73
2018-12-07T15:33:21.159Z,8.20
2018-12-07T15:35:47.906Z,7.53
2018-12-07T15:38:14.492Z,9.10
2018-12-07T15:40:41.217Z,10.20
2018-12-07T15:43:07.821Z,12.37
2018-12-07T15:45:34.364Z,11.03
2018-12-07T15:48:01.117Z,10.27
2018-12-07T15:50:28.003Z,10.00
2018-12-07T15:52:54.880Z,10.93
2018-12-07T15:55:21.503Z,10.30
2018-12-07T15:57:47.943Z,11.83
2018-12-07T16:00:14.469Z,14.47
2018-12-07T16:02:41.212Z,9.47
2018-12-07T16:05:07.923Z,9.20
2018-12-07T16:07:34.674Z,9.20
2018-12-07T16:10:02.171Z,10.17
2018-12-07T16:12:28.841Z,15.30
2018-12-07T16:14:55.635Z,10.37
2018-12-07T16:17:22.173Z,9.57
2018-12-07T16:19:48.787Z,11.87
2018-12-07T16:22:15.943Z,10.30
2018-12-07T16:24:42.485Z,12.90
2018-12-07T16:27:09.112Z,11.70
2018-12-07T16:29:35.569Z,12.50
2018-12-07T16:32:02.476Z,13.33
2018-12-07T16:34:29.358Z,11.10
2018-12-07T16:36:55.862Z,11.90
2018-12-07T16:39:22.711Z,10.13
2018-12-07T16:41:49.261Z,8.30
2018-12-07T16:44:15.940Z,9.97
2018-12-07T16:46:44.158Z,9.47
2018-12-07T16:49:10.755Z,13.47
2018-12-07T16:51:37.434Z,14.33
2018-12-07T16:54:04.095Z,12.00
2018-12-07T16:56:31.455Z,10.10
2018-12-07T17:01:52.657Z,9.13
2018-12-07T17:04:20.064Z,8.90
2018-12-07T17:06:46.607Z,8.33
2018-12-07T17:09:13.187Z,8.97
2018-12-07T17:11:40.501Z,7.93
2018-12-07T17:14:07.140Z,8.60
2018-12-07T17:16:41.110Z,9.90
2018-12-07T17:19:07.706Z,9.20
2018-12-07T17:21:34.608Z,10.00
2018-12-07T17:24:01.082Z,9.13
2018-12-07T17:26:27.738Z,8.93
2018-12-07T17:28:54.335Z,8.70
2018-12-07T17:31:20.830Z,7.77
2018-12-07T17:33:47.353Z,8.97
2018-12-07T17:36:14.007Z,8.80
2018-12-07T17:38:40.564Z,8.17
2018-12-07T17:41:07.074Z,8.37
2018-12-07T17:43:33.805Z,10.97
2018-12-07T17:46:00.312Z,11.40
2018-12-07T17:48:26.872Z,6.30
2018-12-07T17:50:53.620Z,5.67
2018-12-07T17:53:20.209Z,8.63
2018-12-07T17:55:46.920Z,6.47
2018-12-07T17:58:13.678Z,5.23
2018-12-07T18:00:40.436Z,5.00
2018-12-07T18:03:07.225Z,6.90
2018-12-07T18:05:33.709Z,13.00
2018-12-07T18:08:00.645Z,8.53
2018-12-07T18:10:27.307Z,6.83
2018-12-07T18:12:53.931Z,8.87
2018-12-07T18:15:20.566Z,9.90
2018-12-07T18:17:47.105Z,9.40
2018-12-07T18:20:13.784Z,9.87
2018-12-07T18:22:40.318Z,9.23
2018-12-07T18:25:06.968Z,10.90
2018-12-07T18:27:33.786Z,11.50
2018-12-07T18:30:02.338Z,12.13
2018-12-07T18:32:29.008Z,11.93
2018-12-07T18:34:55.680Z,11.30
2018-12-07T18:37:22.187Z,11.53
2018-12-07T18:39:48.973Z,11.77
2018-12-07T18:42:15.856Z,13.50
2018-12-07T18:44:42.955Z,10.40
2018-12-07T18:47:09.493Z,8.30
2018-12-07T18:49:36.356Z,9.33
2018-12-07T18:52:03.660Z,7.80
2018-12-07T18:54:30.292Z,8.67
2018-12-07T18:56:56.969Z,10.10
2018-12-07T18:59:23.606Z,9.83
2018-12-07T19:01:50.187Z,11.00
2018-12-07T19:04:16.878Z,11.60
2018-12-07T19:06:43.744Z,10.00
2018-12-07T19:09:10.287Z,13.03
2018-12-07T19:11:37.066Z,13.67
2018-12-07T19:14:03.865Z,30.57
2018-12-07T19:16:30.282Z,12.33
2018-12-07T19:18:56.777Z,14.53
2018-12-07T19:21:23.349Z,16.97
2018-12-07T19:23:50.963Z,14.93
2018-12-07T19:26:17.626Z,31.63
2018-12-07T19:28:44.438Z,15.57
2018-12-07T19:31:11.421Z,24.60
2018-12-07T19:33:38.181Z,14.50
2018-12-07T19:36:04.797Z,15.00
2018-12-07T19:38:31.708Z,14.03
2018-12-07T19:40:58.263Z,16.50
2018-12-07T19:43:27.416Z,14.47
2018-12-07T19:45:53.865Z,17.20
2018-12-07T19:48:26.538Z,17.90
2018-12-07T19:50:53.108Z,22.27
2018-12-07T19:53:19.681Z,17.63
2018-12-07T19:55:46.397Z,16.17
2018-12-07T19:58:13.606Z,15.77
2018-12-07T20:00:40.199Z,17.57
2018-12-07T20:03:09.642Z,14.87
2018-12-07T20:05:36.281Z,13.30
2018-12-07T20:08:03.559Z,12.10
2018-12-07T20:10:30.229Z,10.60
2018-12-07T20:12:59.163Z,12.63
2018-12-07T20:15:25.731Z,10.90
2018-12-07T20:17:52.250Z,9.00
2018-12-07T20:20:19.358Z,10.67
2018-12-07T20:22:48.623Z,14.87
2018-12-07T20:25:15.397Z,10.63
2018-12-07T20:27:42.802Z,11.77
2018-12-07T20:30:09.756Z,46.57
2018-12-07T20:32:36.577Z,9.17
2018-12-07T20:35:03.572Z,10.30
2018-12-07T20:37:29.965Z,9.07
2018-12-07T20:39:56.285Z,9.30
2018-12-07T20:42:22.752Z,12.73
2018-12-07T20:44:49.147Z,10.87
2018-12-07T20:47:24.363Z,12.70
2018-12-07T20:49:44.556Z,9.10
2018-12-07T20:52:11.280Z,13.20
2018-12-07T20:54:37.678Z,9.00
2018-12-07T20:57:04.103Z,11.17
2018-12-07T20:59:30.628Z,10.43
2018-12-07T21:01:57.256Z,11.53
2018-12-07T21:04:35.394Z,11.13
2018-12-07T21:07:30.368Z,9.27
2018-12-07T21:16:59.641Z,7.50
2018-12-07T21:19:26.654Z,8.07
2018-12-07T21:21:53.757Z,6.50
2018-12-07T21:24:20.364Z,8.43
2018-12-07T21:26:47.007Z,8.43
2018-12-07T21:29:13.992Z,9.50
2018-12-07T21:31:40.773Z,13.03
2018-12-07T21:34:19.803Z,11.83
2018-12-07T21:36:46.416Z,12.77
2018-12-07T21:39:17.393Z,11.00
2018-12-07T21:41:44.333Z,11.30
2018-12-07T21:44:11.869Z,9.83
2018-12-07T21:46:38.844Z,18.30
2018-12-07T21:49:05.394Z,12.20
2018-12-07T21:51:45.018Z,13.57
2018-12-07T21:54:12.209Z,16.20
2018-12-07T21:56:38.826Z,13.07
2018-12-07T21:59:05.452Z,15.13
2018-12-07T22:01:32.236Z,16.13
2018-12-07T22:03:58.981Z,13.83
2018-12-07T22:06:25.819Z,15.07
2018-12-07T22:08:52.665Z,13.17
2018-12-07T22:11:19.245Z,19.03
2018-12-07T22:13:45.790Z,15.20
2018-12-07T22:16:12.387Z,17.63
2018-12-07T22:18:39.689Z,16.60
2018-12-07T22:21:06.206Z,20.47
2018-12-07T22:23:32.850Z,13.53
2018-12-07T22:25:59.565Z,17.33
2018-12-07T22:28:26.363Z,18.87
2018-12-07T22:30:53.409Z,24.83
2018-12-07T22:33:19.935Z,19.43
2018-12-07T22:35:46.483Z,14.57
2018-12-07T22:38:13.889Z,14.30
2018-12-07T22:40:40.647Z,13.70
2018-12-07T22:43:07.576Z,13.40
2018-12-07T22:45:34.201Z,16.47
2018-12-07T22:48:00.671Z,17.30
2018-12-07T22:50:27.165Z,17.30
2018-12-07T22:52:53.585Z,15.57
2018-12-07T22:55:19.952Z,18.80
2018-12-07T22:57:46.469Z,16.37
2018-12-07T23:00:15.174Z,15.03
2018-12-07T23:02:41.615Z,18.10
2018-12-07T23:05:08.092Z,31.63
2018-12-07T23:07:34.434Z,17.87
2018-12-07T23:10:00.767Z,16.47
2018-12-07T23:12:27.119Z,18.17
2018-12-07T23:14:53.506Z,21.43
2018-12-07T23:17:19.921Z,21.90
2018-12-07T23:19:46.353Z,16.80
2018-12-07T23:22:12.843Z,28.37
2018-12-07T23:24:39.287Z,19.83
2018-12-07T23:27:05.741Z,18.00
2018-12-07T23:29:32.180Z,18.67
2018-12-07T23:31:58.593Z,22.90
2018-12-07T23:34:25.068Z,21.97
2018-12-07T23:36:51.592Z,20.97
2018-12-07T23:39:18.026Z,24.70
2018-12-07T23:41:44.457Z,27.10
2018-12-07T23:44:10.830Z,20.50
2018-12-07T23:46:37.221Z,20.47
2018-12-07T23:49:03.762Z,20.50
2018-12-07T23:51:30.160Z,22.33
2018-12-07T23:53:56.522Z,17.60
2018-12-07T23:56:22.876Z,21.83
2018-12-07T23:58:49.290Z,18.47
